Pagrindinis puslapis
METAR-TAF:

METAR-TAF

Oro uostai :

Al-Hasa, Saudo Arabija

platuma: 25-18N, ilguma: 049-29E, Aukštis: 179 m

Dabartinis oras

Ataskaita buvo paskelbta 1 valandą ir 3 minutes, ne 20:00 UTC
Vėjas 18 kt iš Šiaurės Vakarų
Temperatūra 37°C
Drėgmė 8%
Slėgis 1003 hPa
Matomumas: 0900 m
Smėlio pustymas

METAR: OEAH 172000Z 32018KT 0900 BLSA NSC 37/M02 Q1003 NOSIG

Laikas: 00:03 (21:03 UTC)

Prognozė

Ataskaita buvo paskelbta 10 valandos ir 3 minutes, ne 11:00 UTC
Prognozė galioja nuo 17 metu 12 UTC su 18 metu 18 UTC
Vėjas 25 kt iš Šiaurės
Matomumas: 0500 m
Tapsmas
nuo 17 metu 18 UTC su 17 metu 20 UTC
Vėjas 15 kt iš Šiaurės/Šiaurės Vakarų
Matomumas: 2000 m
Dulkes pustymas
Tapsmas
nuo 18 metu 06 UTC su 18 metu 08 UTC
Vėjas 25 kt iš Šiaurės

TAF: OEAH 171100Z 1712/1818 35025KT 0500 DS VV/// BECMG 1718/1720 33015KT 2000 BLDU BECMG 1806/1808 35025KT

Orai ataskaitas ir orų prognozės (METAR, TAF).

turimą stotys yra geltonos ir raudonos taškus žemėlapyje.

Perkelti pele per norėdami pamatyti stoties vardą.

Tada spustelėkite, norėdami matyti oro stebėjimo ir prognozės.

Norėdami pakeisti žemėlapį: spustelėkite ant žalios mygtukų su juodo kryžiaus žemyn,; žalią mygtuką su brūkšneliu, jei norite nutolinti; arba žalių rodyklių gretimoms žemėlapius.


METAR-TAF: